sensor_id;sensor_type;location;lat;lon;timestamp;temperature;humidity
33865;DHT22;20159;51.072;13.526;2022-11-20T00:00:46;-4.20;86.40
33865;DHT22;20159;51.072;13.526;2022-11-20T00:03:12;-4.10;86.60
33865;DHT22;20159;51.072;13.526;2022-11-20T00:05:38;-4.20;86.70
33865;DHT22;20159;51.072;13.526;2022-11-20T00:08:04;-4.20;86.80
33865;DHT22;20159;51.072;13.526;2022-11-20T00:10:30;-4.20;87.10
33865;DHT22;20159;51.072;13.526;2022-11-20T00:12:57;-4.20;87.30
33865;DHT22;20159;51.072;13.526;2022-11-20T00:15:22;-4.20;87.30
33865;DHT22;20159;51.072;13.526;2022-11-20T00:17:48;-4.20;86.70
33865;DHT22;20159;51.072;13.526;2022-11-20T00:20:13;-4.20;86.20
33865;DHT22;20159;51.072;13.526;2022-11-20T00:22:39;-4.20;86.00
33865;DHT22;20159;51.072;13.526;2022-11-20T00:25:05;-3.90;86.00
33865;DHT22;20159;51.072;13.526;2022-11-20T00:27:30;-4.30;85.90
33865;DHT22;20159;51.072;13.526;2022-11-20T00:29:56;-4.30;85.80
33865;DHT22;20159;51.072;13.526;2022-11-20T00:32:21;-4.30;86.00
33865;DHT22;20159;51.072;13.526;2022-11-20T00:34:47;-4.30;86.60
33865;DHT22;20159;51.072;13.526;2022-11-20T00:37:12;-4.30;87.20
33865;DHT22;20159;51.072;13.526;2022-11-20T00:39:38;-4.40;87.50
33865;DHT22;20159;51.072;13.526;2022-11-20T00:42:03;-4.30;88.00
33865;DHT22;20159;51.072;13.526;2022-11-20T00:44:29;-4.30;88.00
33865;DHT22;20159;51.072;13.526;2022-11-20T00:46:54;-4.30;87.60
33865;DHT22;20159;51.072;13.526;2022-11-20T00:49:20;-4.30;87.60
33865;DHT22;20159;51.072;13.526;2022-11-20T00:51:46;-4.30;87.60
33865;DHT22;20159;51.072;13.526;2022-11-20T00:54:11;-4.30;87.60
33865;DHT22;20159;51.072;13.526;2022-11-20T00:56:37;-4.30;87.60
33865;DHT22;20159;51.072;13.526;2022-11-20T00:59:02;-4.30;87.80
33865;DHT22;20159;51.072;13.526;2022-11-20T01:01:28;-4.30;87.80
33865;DHT22;20159;51.072;13.526;2022-11-20T01:03:58;-3.50;88.20
33865;DHT22;20159;51.072;13.526;2022-11-20T01:06:26;-4.30;87.80
33865;DHT22;20159;51.072;13.526;2022-11-20T01:08:54;-4.30;87.90
33865;DHT22;20159;51.072;13.526;2022-11-20T01:11:28;-4.30;88.10
33865;DHT22;20159;51.072;13.526;2022-11-20T01:13:56;-4.30;88.10
33865;DHT22;20159;51.072;13.526;2022-11-20T01:16:33;-4.30;87.90
33865;DHT22;20159;51.072;13.526;2022-11-20T01:19:01;-4.20;87.50
33865;DHT22;20159;51.072;13.526;2022-11-20T01:21:30;-4.20;87.20
33865;DHT22;20159;51.072;13.526;2022-11-20T01:23:57;-4.20;86.90
33865;DHT22;20159;51.072;13.526;2022-11-20T01:26:25;-4.20;86.50
33865;DHT22;20159;51.072;13.526;2022-11-20T01:28:52;-4.20;85.60
33865;DHT22;20159;51.072;13.526;2022-11-20T01:31:23;-4.30;85.00
33865;DHT22;20159;51.072;13.526;2022-11-20T01:33:52;-4.30;84.40
33865;DHT22;20159;51.072;13.526;2022-11-20T01:36:20;-4.30;84.40
33865;DHT22;20159;51.072;13.526;2022-11-20T01:38:47;-4.30;84.40
33865;DHT22;20159;51.072;13.526;2022-11-20T01:41:14;-4.40;84.50
33865;DHT22;20159;51.072;13.526;2022-11-20T01:44:00;-4.50;84.70
33865;DHT22;20159;51.072;13.526;2022-11-20T01:46:26;-4.50;84.90
33865;DHT22;20159;51.072;13.526;2022-11-20T01:49:17;-4.50;84.90
33865;DHT22;20159;51.072;13.526;2022-11-20T01:51:52;-4.60;85.10
33865;DHT22;20159;51.072;13.526;2022-11-20T01:54:24;-4.60;84.80
33865;DHT22;20159;51.072;13.526;2022-11-20T01:56:52;-4.70;84.40
33865;DHT22;20159;51.072;13.526;2022-11-20T01:59:22;-4.50;84.30
33865;DHT22;20159;51.072;13.526;2022-11-20T02:01:49;-4.70;84.30
33865;DHT22;20159;51.072;13.526;2022-11-20T02:04:15;-4.80;84.30
33865;DHT22;20159;51.072;13.526;2022-11-20T02:09:07;-4.80;83.90
33865;DHT22;20159;51.072;13.526;2022-11-20T02:11:32;-4.90;83.30
33865;DHT22;20159;51.072;13.526;2022-11-20T02:13:58;-4.90;83.10
33865;DHT22;20159;51.072;13.526;2022-11-20T02:16:35;-4.90;83.40
33865;DHT22;20159;51.072;13.526;2022-11-20T02:19:04;-5.00;83.70
33865;DHT22;20159;51.072;13.526;2022-11-20T02:21:43;-5.00;83.70
33865;DHT22;20159;51.072;13.526;2022-11-20T02:24:21;-5.10;83.40
33865;DHT22;20159;51.072;13.526;2022-11-20T02:26:51;-5.10;83.40
33865;DHT22;20159;51.072;13.526;2022-11-20T02:29:28;-5.10;83.40
33865;DHT22;20159;51.072;13.526;2022-11-20T02:31:57;-5.20;83.80
33865;DHT22;20159;51.072;13.526;2022-11-20T02:34:24;-5.20;84.20
33865;DHT22;20159;51.072;13.526;2022-11-20T02:36:51;-5.20;84.60
33865;DHT22;20159;51.072;13.526;2022-11-20T02:39:19;-5.20;85.00
33865;DHT22;20159;51.072;13.526;2022-11-20T02:41:45;-5.20;85.30
33865;DHT22;20159;51.072;13.526;2022-11-20T02:44:11;-5.20;85.70
33865;DHT22;20159;51.072;13.526;2022-11-20T02:46:36;-5.20;86.00
33865;DHT22;20159;51.072;13.526;2022-11-20T02:49:03;-5.20;86.30
33865;DHT22;20159;51.072;13.526;2022-11-20T02:51:30;-5.10;86.70
33865;DHT22;20159;51.072;13.526;2022-11-20T02:53:55;-5.10;86.40
33865;DHT22;20159;51.072;13.526;2022-11-20T02:56:21;-5.20;86.00
33865;DHT22;20159;51.072;13.526;2022-11-20T02:58:47;-5.10;86.30
33865;DHT22;20159;51.072;13.526;2022-11-20T03:01:13;-5.10;86.80
33865;DHT22;20159;51.072;13.526;2022-11-20T03:03:39;-5.10;87.10
33865;DHT22;20159;51.072;13.526;2022-11-20T03:06:04;-5.10;87.50
33865;DHT22;20159;51.072;13.526;2022-11-20T03:08:30;-5.00;87.60
33865;DHT22;20159;51.072;13.526;2022-11-20T03:10:55;-5.00;87.40
33865;DHT22;20159;51.072;13.526;2022-11-20T03:13:21;-5.00;87.00
33865;DHT22;20159;51.072;13.526;2022-11-20T03:15:46;-5.00;86.30
33865;DHT22;20159;51.072;13.526;2022-11-20T03:18:12;-5.00;85.70
33865;DHT22;20159;51.072;13.526;2022-11-20T03:20:39;-5.00;85.10
33865;DHT22;20159;51.072;13.526;2022-11-20T03:23:05;-5.00;84.50
33865;DHT22;20159;51.072;13.526;2022-11-20T03:25:30;-5.00;84.20
33865;DHT22;20159;51.072;13.526;2022-11-20T03:27:56;-5.00;84.10
33865;DHT22;20159;51.072;13.526;2022-11-20T03:30:21;-5.10;83.70
33865;DHT22;20159;51.072;13.526;2022-11-20T03:32:47;-5.10;83.50
33865;DHT22;20159;51.072;13.526;2022-11-20T03:35:13;-5.20;83.30
33865;DHT22;20159;51.072;13.526;2022-11-20T03:37:38;-5.20;83.50
33865;DHT22;20159;51.072;13.526;2022-11-20T03:40:04;-5.30;83.70
33865;DHT22;20159;51.072;13.526;2022-11-20T03:42:30;-5.30;83.40
33865;DHT22;20159;51.072;13.526;2022-11-20T03:45:12;-5.30;83.60
33865;DHT22;20159;51.072;13.526;2022-11-20T03:47:37;-5.40;84.00
33865;DHT22;20159;51.072;13.526;2022-11-20T03:50:03;-5.40;84.20
33865;DHT22;20159;51.072;13.526;2022-11-20T03:52:29;-5.50;84.50
33865;DHT22;20159;51.072;13.526;2022-11-20T03:54:54;-5.50;84.50
33865;DHT22;20159;51.072;13.526;2022-11-20T03:57:20;-5.50;85.00
33865;DHT22;20159;51.072;13.526;2022-11-20T03:59:46;-5.50;85.30
33865;DHT22;20159;51.072;13.526;2022-11-20T04:02:11;-5.50;85.40
33865;DHT22;20159;51.072;13.526;2022-11-20T04:04:37;-5.50;86.00
33865;DHT22;20159;51.072;13.526;2022-11-20T04:07:02;-5.50;86.40
33865;DHT22;20159;51.072;13.526;2022-11-20T04:09:28;-5.40;86.70
33865;DHT22;20159;51.072;13.526;2022-11-20T04:11:54;-5.40;87.10
33865;DHT22;20159;51.072;13.526;2022-11-20T04:14:19;-5.30;87.30
33865;DHT22;20159;51.072;13.526;2022-11-20T04:16:45;-5.40;87.30
33865;DHT22;20159;51.072;13.526;2022-11-20T04:19:13;-5.30;87.50
33865;DHT22;20159;51.072;13.526;2022-11-20T04:21:38;-5.30;87.30
33865;DHT22;20159;51.072;13.526;2022-11-20T04:24:05;-5.30;87.10
33865;DHT22;20159;51.072;13.526;2022-11-20T04:26:31;-5.30;87.10
33865;DHT22;20159;51.072;13.526;2022-11-20T04:28:57;-5.20;87.40
33865;DHT22;20159;51.072;13.526;2022-11-20T04:31:25;-5.20;87.40
33865;DHT22;20159;51.072;13.526;2022-11-20T04:33:51;-5.20;87.00
33865;DHT22;20159;51.072;13.526;2022-11-20T04:36:21;-5.20;86.70
33865;DHT22;20159;51.072;13.526;2022-11-20T04:38:50;-5.10;86.90
33865;DHT22;20159;51.072;13.526;2022-11-20T04:41:18;-5.10;87.00
33865;DHT22;20159;51.072;13.526;2022-11-20T04:43:53;-5.00;86.90
33865;DHT22;20159;51.072;13.526;2022-11-20T04:46:20;-5.10;86.50
33865;DHT22;20159;51.072;13.526;2022-11-20T04:48:46;-5.10;86.30
33865;DHT22;20159;51.072;13.526;2022-11-20T04:51:12;-4.90;86.20
33865;DHT22;20159;51.072;13.526;2022-11-20T04:53:38;-5.10;86.20
33865;DHT22;20159;51.072;13.526;2022-11-20T04:56:06;-5.10;86.60
33865;DHT22;20159;51.072;13.526;2022-11-20T04:58:33;-5.10;86.40
33865;DHT22;20159;51.072;13.526;2022-11-20T05:01:10;-5.10;86.40
33865;DHT22;20159;51.072;13.526;2022-11-20T05:03:36;-5.10;86.40
33865;DHT22;20159;51.072;13.526;2022-11-20T05:06:03;-5.10;86.50
33865;DHT22;20159;51.072;13.526;2022-11-20T05:08:30;-5.10;86.50
33865;DHT22;20159;51.072;13.526;2022-11-20T05:11:04;-5.10;86.40
33865;DHT22;20159;51.072;13.526;2022-11-20T05:13:29;-5.10;86.30
33865;DHT22;20159;51.072;13.526;2022-11-20T05:15:55;-5.10;86.20
33865;DHT22;20159;51.072;13.526;2022-11-20T05:18:21;-5.10;86.10
33865;DHT22;20159;51.072;13.526;2022-11-20T05:20:54;-5.10;86.10
33865;DHT22;20159;51.072;13.526;2022-11-20T05:23:20;-5.00;85.80
33865;DHT22;20159;51.072;13.526;2022-11-20T05:25:46;-5.10;85.60
33865;DHT22;20159;51.072;13.526;2022-11-20T05:28:11;-5.10;85.50
33865;DHT22;20159;51.072;13.526;2022-11-20T05:30:37;-5.00;86.00
33865;DHT22;20159;51.072;13.526;2022-11-20T05:33:02;-5.10;85.60
33865;DHT22;20159;51.072;13.526;2022-11-20T05:35:28;-5.10;85.60
33865;DHT22;20159;51.072;13.526;2022-11-20T05:37:53;-5.10;85.60
33865;DHT22;20159;51.072;13.526;2022-11-20T05:40:19;-5.10;85.40
33865;DHT22;20159;51.072;13.526;2022-11-20T05:42:44;-5.10;85.70
33865;DHT22;20159;51.072;13.526;2022-11-20T05:45:10;-5.10;85.20
33865;DHT22;20159;51.072;13.526;2022-11-20T05:47:35;-5.10;85.00
33865;DHT22;20159;51.072;13.526;2022-11-20T05:50:01;-5.10;85.00
33865;DHT22;20159;51.072;13.526;2022-11-20T05:52:30;-5.10;84.80
33865;DHT22;20159;51.072;13.526;2022-11-20T05:54:56;-5.10;84.80
33865;DHT22;20159;51.072;13.526;2022-11-20T05:57:21;-5.20;84.70
33865;DHT22;20159;51.072;13.526;2022-11-20T05:59:47;-5.20;84.40
33865;DHT22;20159;51.072;13.526;2022-11-20T06:02:13;-5.20;84.40
33865;DHT22;20159;51.072;13.526;2022-11-20T06:04:38;-5.20;84.40
33865;DHT22;20159;51.072;13.526;2022-11-20T06:07:07;-5.20;84.30
33865;DHT22;20159;51.072;13.526;2022-11-20T06:09:33;-5.30;84.10
33865;DHT22;20159;51.072;13.526;2022-11-20T06:11:59;-5.30;84.20
33865;DHT22;20159;51.072;13.526;2022-11-20T06:14:24;-5.30;84.60
33865;DHT22;20159;51.072;13.526;2022-11-20T06:16:50;-5.40;84.90
33865;DHT22;20159;51.072;13.526;2022-11-20T06:19:15;-5.40;84.90
33865;DHT22;20159;51.072;13.526;2022-11-20T06:21:41;-5.40;85.20
33865;DHT22;20159;51.072;13.526;2022-11-20T06:24:09;-5.40;84.30
33865;DHT22;20159;51.072;13.526;2022-11-20T06:26:35;-5.40;84.30
33865;DHT22;20159;51.072;13.526;2022-11-20T06:29:01;-5.40;84.20
33865;DHT22;20159;51.072;13.526;2022-11-20T06:31:26;-5.40;84.30
33865;DHT22;20159;51.072;13.526;2022-11-20T06:33:52;-5.50;84.40
33865;DHT22;20159;51.072;13.526;2022-11-20T06:36:20;-5.10;84.90
33865;DHT22;20159;51.072;13.526;2022-11-20T06:38:46;-5.40;84.60
33865;DHT22;20159;51.072;13.526;2022-11-20T06:41:17;-5.50;84.20
33865;DHT22;20159;51.072;13.526;2022-11-20T06:43:43;-5.50;83.80
33865;DHT22;20159;51.072;13.526;2022-11-20T06:46:10;-5.50;83.70
33865;DHT22;20159;51.072;13.526;2022-11-20T06:48:36;-5.40;83.70
33865;DHT22;20159;51.072;13.526;2022-11-20T06:51:07;-5.50;83.60
33865;DHT22;20159;51.072;13.526;2022-11-20T06:53:33;-5.50;83.80
33865;DHT22;20159;51.072;13.526;2022-11-20T06:55:58;-5.50;84.40
33865;DHT22;20159;51.072;13.526;2022-11-20T06:58:26;-5.60;84.60
33865;DHT22;20159;51.072;13.526;2022-11-20T07:00:53;-5.50;84.50
33865;DHT22;20159;51.072;13.526;2022-11-20T07:03:18;-5.50;84.70
33865;DHT22;20159;51.072;13.526;2022-11-20T07:05:44;-5.40;85.30
33865;DHT22;20159;51.072;13.526;2022-11-20T07:08:11;-5.50;85.60
33865;DHT22;20159;51.072;13.526;2022-11-20T07:10:37;-5.50;85.70
33865;DHT22;20159;51.072;13.526;2022-11-20T07:13:02;-5.40;85.80
33865;DHT22;20159;51.072;13.526;2022-11-20T07:15:28;-2.40;87.90
33865;DHT22;20159;51.072;13.526;2022-11-20T07:17:54;-5.30;87.10
33865;DHT22;20159;51.072;13.526;2022-11-20T07:20:19;-5.20;88.50
33865;DHT22;20159;51.072;13.526;2022-11-20T07:22:45;-4.80;90.30
33865;DHT22;20159;51.072;13.526;2022-11-20T07:25:10;-4.50;91.10
33865;DHT22;20159;51.072;13.526;2022-11-20T07:27:36;-4.30;91.90
33865;DHT22;20159;51.072;13.526;2022-11-20T07:30:03;-3.80;92.50
33865;DHT22;20159;51.072;13.526;2022-11-20T07:32:29;-3.40;92.60
33865;DHT22;20159;51.072;13.526;2022-11-20T07:34:54;-3.00;92.70
33865;DHT22;20159;51.072;13.526;2022-11-20T07:37:20;-2.50;92.50
33865;DHT22;20159;51.072;13.526;2022-11-20T07:39:45;-2.00;92.50
33865;DHT22;20159;51.072;13.526;2022-11-20T07:42:11;-1.50;92.70
33865;DHT22;20159;51.072;13.526;2022-11-20T07:44:38;-1.00;92.70
33865;DHT22;20159;51.072;13.526;2022-11-20T07:47:04;-0.40;93.30
33865;DHT22;20159;51.072;13.526;2022-11-20T07:49:30;0.30;93.50
33865;DHT22;20159;51.072;13.526;2022-11-20T07:51:55;0.80;93.00
33865;DHT22;20159;51.072;13.526;2022-11-20T07:54:21;1.40;92.70
33865;DHT22;20159;51.072;13.526;2022-11-20T07:56:50;1.90;92.40
33865;DHT22;20159;51.072;13.526;2022-11-20T07:59:15;2.60;92.50
33865;DHT22;20159;51.072;13.526;2022-11-20T08:01:42;3.10;91.90
33865;DHT22;20159;51.072;13.526;2022-11-20T08:04:08;3.70;90.90
33865;DHT22;20159;51.072;13.526;2022-11-20T08:06:35;4.20;90.60
33865;DHT22;20159;51.072;13.526;2022-11-20T08:09:02;4.70;89.50
33865;DHT22;20159;51.072;13.526;2022-11-20T08:11:27;5.10;87.20
33865;DHT22;20159;51.072;13.526;2022-11-20T08:14:12;5.50;84.50
33865;DHT22;20159;51.072;13.526;2022-11-20T08:16:42;5.90;84.10
33865;DHT22;20159;51.072;13.526;2022-11-20T08:19:08;6.30;81.80
33865;DHT22;20159;51.072;13.526;2022-11-20T08:21:34;6.70;81.20
33865;DHT22;20159;51.072;13.526;2022-11-20T08:23:59;6.90;79.30
33865;DHT22;20159;51.072;13.526;2022-11-20T08:26:25;7.10;77.50
33865;DHT22;20159;51.072;13.526;2022-11-20T08:28:55;7.20;76.70
33865;DHT22;20159;51.072;13.526;2022-11-20T08:31:22;7.30;74.30
33865;DHT22;20159;51.072;13.526;2022-11-20T08:33:47;7.40;73.50
33865;DHT22;20159;51.072;13.526;2022-11-20T08:36:13;7.50;73.00
33865;DHT22;20159;51.072;13.526;2022-11-20T08:38:39;7.70;74.10
33865;DHT22;20159;51.072;13.526;2022-11-20T08:41:05;8.50;73.60
33865;DHT22;20159;51.072;13.526;2022-11-20T08:43:59;7.90;75.30
33865;DHT22;20159;51.072;13.526;2022-11-20T08:46:28;8.20;74.40
33865;DHT22;20159;51.072;13.526;2022-11-20T08:48:56;8.50;75.20
33865;DHT22;20159;51.072;13.526;2022-11-20T08:51:21;8.80;73.90
33865;DHT22;20159;51.072;13.526;2022-11-20T08:53:47;9.10;73.80
33865;DHT22;20159;51.072;13.526;2022-11-20T08:56:14;9.40;73.00
33865;DHT22;20159;51.072;13.526;2022-11-20T08:58:40;9.70;73.50
33865;DHT22;20159;51.072;13.526;2022-11-20T09:01:05;10.00;72.70
33865;DHT22;20159;51.072;13.526;2022-11-20T09:03:31;10.20;72.40
33865;DHT22;20159;51.072;13.526;2022-11-20T09:05:58;10.50;72.40
33865;DHT22;20159;51.072;13.526;2022-11-20T09:08:24;10.80;70.10
33865;DHT22;20159;51.072;13.526;2022-11-20T09:10:54;11.10;71.30
33865;DHT22;20159;51.072;13.526;2022-11-20T09:13:21;11.30;70.00
33865;DHT22;20159;51.072;13.526;2022-11-20T09:15:47;11.50;70.50
33865;DHT22;20159;51.072;13.526;2022-11-20T09:18:17;11.70;68.30
33865;DHT22;20159;51.072;13.526;2022-11-20T09:20:42;12.00;67.80
33865;DHT22;20159;51.072;13.526;2022-11-20T09:23:08;12.20;67.70
33865;DHT22;20159;51.072;13.526;2022-11-20T09:25:33;12.30;67.80
33865;DHT22;20159;51.072;13.526;2022-11-20T09:27:59;12.50;68.30
33865;DHT22;20159;51.072;13.526;2022-11-20T09:30:26;12.70;66.90
33865;DHT22;20159;51.072;13.526;2022-11-20T09:32:52;12.90;65.50
33865;DHT22;20159;51.072;13.526;2022-11-20T09:35:17;13.10;66.00
33865;DHT22;20159;51.072;13.526;2022-11-20T09:37:43;13.30;64.80
33865;DHT22;20159;51.072;13.526;2022-11-20T09:40:29;13.50;64.10
33865;DHT22;20159;51.072;13.526;2022-11-20T09:43:16;13.60;60.90
33865;DHT22;20159;51.072;13.526;2022-11-20T09:46:17;13.70;59.60
33865;DHT22;20159;51.072;13.526;2022-11-20T09:51:57;16.20;60.80
33865;DHT22;20159;51.072;13.526;2022-11-20T09:54:31;13.60;59.90
33865;DHT22;20159;51.072;13.526;2022-11-20T09:57:10;13.50;59.90
33865;DHT22;20159;51.072;13.526;2022-11-20T09:59:50;13.40;59.20
33865;DHT22;20159;51.072;13.526;2022-11-20T10:05:11;13.20;60.50
33865;DHT22;20159;51.072;13.526;2022-11-20T10:10:47;12.90;58.10
33865;DHT22;20159;51.072;13.526;2022-11-20T10:13:44;12.80;59.00
33865;DHT22;20159;51.072;13.526;2022-11-20T10:21:41;12.30;57.90
33865;DHT22;20159;51.072;13.526;2022-11-20T10:30:03;11.40;57.60
33865;DHT22;20159;51.072;13.526;2022-11-20T10:32:45;11.00;58.00
33865;DHT22;20159;51.072;13.526;2022-11-20T10:35:27;10.70;57.30
33865;DHT22;20159;51.072;13.526;2022-11-20T10:38:02;10.30;57.60
33865;DHT22;20159;51.072;13.526;2022-11-20T10:40:38;10.00;58.20
33865;DHT22;20159;51.072;13.526;2022-11-20T10:43:15;9.70;59.40
33865;DHT22;20159;51.072;13.526;2022-11-20T10:45:47;9.40;59.70
33865;DHT22;20159;51.072;13.526;2022-11-20T10:48:26;9.30;60.80
33865;DHT22;20159;51.072;13.526;2022-11-20T10:53:53;9.10;60.00
33865;DHT22;20159;51.072;13.526;2022-11-20T10:56:28;8.90;59.80
33865;DHT22;20159;51.072;13.526;2022-11-20T11:01:42;8.40;59.70
33865;DHT22;20159;51.072;13.526;2022-11-20T11:04:35;8.10;60.10
33865;DHT22;20159;51.072;13.526;2022-11-20T11:07:14;7.80;60.40
33865;DHT22;20159;51.072;13.526;2022-11-20T11:09:47;7.50;61.10
33865;DHT22;20159;51.072;13.526;2022-11-20T11:12:13;7.20;61.60
33865;DHT22;20159;51.072;13.526;2022-11-20T11:14:43;7.00;62.20
33865;DHT22;20159;51.072;13.526;2022-11-20T11:17:24;6.80;63.40
33865;DHT22;20159;51.072;13.526;2022-11-20T11:20:15;6.70;62.90
33865;DHT22;20159;51.072;13.526;2022-11-20T11:22:52;6.60;63.90
33865;DHT22;20159;51.072;13.526;2022-11-20T11:25:24;6.60;65.40
33865;DHT22;20159;51.072;13.526;2022-11-20T11:27:51;6.60;65.90
33865;DHT22;20159;51.072;13.526;2022-11-20T11:30:19;6.70;65.70
33865;DHT22;20159;51.072;13.526;2022-11-20T11:32:45;6.80;65.00
33865;DHT22;20159;51.072;13.526;2022-11-20T11:35:28;6.90;65.80
33865;DHT22;20159;51.072;13.526;2022-11-20T11:38:16;7.00;65.30
33865;DHT22;20159;51.072;13.526;2022-11-20T11:40:43;7.10;65.50
33865;DHT22;20159;51.072;13.526;2022-11-20T11:43:19;7.20;65.10
33865;DHT22;20159;51.072;13.526;2022-11-20T11:46:21;7.20;65.30
33865;DHT22;20159;51.072;13.526;2022-11-20T11:49:00;7.20;65.70
33865;DHT22;20159;51.072;13.526;2022-11-20T11:51:32;7.30;64.70
33865;DHT22;20159;51.072;13.526;2022-11-20T11:54:00;7.20;64.60
33865;DHT22;20159;51.072;13.526;2022-11-20T11:56:28;7.20;64.80
33865;DHT22;20159;51.072;13.526;2022-11-20T11:58:57;7.10;64.30
33865;DHT22;20159;51.072;13.526;2022-11-20T12:01:30;6.90;64.30
33865;DHT22;20159;51.072;13.526;2022-11-20T12:04:20;6.80;64.60
33865;DHT22;20159;51.072;13.526;2022-11-20T12:06:57;7.70;64.70
33865;DHT22;20159;51.072;13.526;2022-11-20T12:09:34;6.60;65.00
33865;DHT22;20159;51.072;13.526;2022-11-20T12:12:10;6.50;65.60
33865;DHT22;20159;51.072;13.526;2022-11-20T12:14:46;6.40;65.50
33865;DHT22;20159;51.072;13.526;2022-11-20T12:17:13;6.40;65.40
33865;DHT22;20159;51.072;13.526;2022-11-20T12:19:40;6.30;66.00
33865;DHT22;20159;51.072;13.526;2022-11-20T12:33:35;5.60;65.60
33865;DHT22;20159;51.072;13.526;2022-11-20T12:36:03;5.50;66.30
33865;DHT22;20159;51.072;13.526;2022-11-20T12:41:29;5.20;67.20
33865;DHT22;20159;51.072;13.526;2022-11-20T12:47:56;4.90;68.50
33865;DHT22;20159;51.072;13.526;2022-11-20T12:50:43;4.80;69.00
33865;DHT22;20159;51.072;13.526;2022-11-20T12:53:36;4.80;69.70
33865;DHT22;20159;51.072;13.526;2022-11-20T12:59:26;4.70;71.20
33865;DHT22;20159;51.072;13.526;2022-11-20T13:04:46;4.60;71.30
33865;DHT22;20159;51.072;13.526;2022-11-20T13:07:14;4.60;71.10
33865;DHT22;20159;51.072;13.526;2022-11-20T13:09:45;4.60;71.40
33865;DHT22;20159;51.072;13.526;2022-11-20T13:15:05;4.60;71.80
33865;DHT22;20159;51.072;13.526;2022-11-20T13:17:42;4.60;71.60
33865;DHT22;20159;51.072;13.526;2022-11-20T13:20:16;4.60;71.70
33865;DHT22;20159;51.072;13.526;2022-11-20T13:22:47;4.60;72.20
33865;DHT22;20159;51.072;13.526;2022-11-20T13:27:57;4.60;72.20
33865;DHT22;20159;51.072;13.526;2022-11-20T13:30:27;4.60;71.70
33865;DHT22;20159;51.072;13.526;2022-11-20T13:33:35;4.60;71.60
33865;DHT22;20159;51.072;13.526;2022-11-20T13:36:05;4.50;72.20
33865;DHT22;20159;51.072;13.526;2022-11-20T13:38:48;4.50;72.00
33865;DHT22;20159;51.072;13.526;2022-11-20T13:41:53;4.50;72.30
33865;DHT22;20159;51.072;13.526;2022-11-20T13:47:03;4.40;72.50
33865;DHT22;20159;51.072;13.526;2022-11-20T13:49:38;4.40;72.20
33865;DHT22;20159;51.072;13.526;2022-11-20T13:58:15;4.30;72.30
33865;DHT22;20159;51.072;13.526;2022-11-20T14:00:32;4.20;72.50
33865;DHT22;20159;51.072;13.526;2022-11-20T14:05:36;4.10;72.70
33865;DHT22;20159;51.072;13.526;2022-11-20T14:08:06;4.10;72.70
33865;DHT22;20159;51.072;13.526;2022-11-20T14:10:35;4.00;72.70
33865;DHT22;20159;51.072;13.526;2022-11-20T14:13:15;4.00;73.00
33865;DHT22;20159;51.072;13.526;2022-11-20T14:15:42;4.00;73.40
33865;DHT22;20159;51.072;13.526;2022-11-20T14:18:19;3.90;73.30
33865;DHT22;20159;51.072;13.526;2022-11-20T14:20:45;3.90;73.20
33865;DHT22;20159;51.072;13.526;2022-11-20T14:23:11;3.80;73.30
33865;DHT22;20159;51.072;13.526;2022-11-20T14:25:42;3.80;73.50
33865;DHT22;20159;51.072;13.526;2022-11-20T14:28:12;3.70;73.90
33865;DHT22;20159;51.072;13.526;2022-11-20T14:30:46;3.70;74.00
33865;DHT22;20159;51.072;13.526;2022-11-20T14:33:13;3.70;74.10
33865;DHT22;20159;51.072;13.526;2022-11-20T14:35:56;3.60;74.00
33865;DHT22;20159;51.072;13.526;2022-11-20T14:38:27;3.50;74.20
33865;DHT22;20159;51.072;13.526;2022-11-20T14:40:54;3.40;74.40
33865;DHT22;20159;51.072;13.526;2022-11-20T14:43:26;3.30;74.40
33865;DHT22;20159;51.072;13.526;2022-11-20T14:46:00;3.30;74.60
33865;DHT22;20159;51.072;13.526;2022-11-20T14:48:31;3.20;74.90
33865;DHT22;20159;51.072;13.526;2022-11-20T14:50:57;3.10;74.90
33865;DHT22;20159;51.072;13.526;2022-11-20T14:53:24;3.00;75.00
33865;DHT22;20159;51.072;13.526;2022-11-20T14:56:00;2.90;74.80
33865;DHT22;20159;51.072;13.526;2022-11-20T14:58:32;2.80;75.10
33865;DHT22;20159;51.072;13.526;2022-11-20T15:01:01;2.70;75.30
33865;DHT22;20159;51.072;13.526;2022-11-20T15:03:35;2.60;75.40
33865;DHT22;20159;51.072;13.526;2022-11-20T15:06:01;2.50;75.30
33865;DHT22;20159;51.072;13.526;2022-11-20T15:08:27;2.40;75.60
33865;DHT22;20159;51.072;13.526;2022-11-20T15:10:54;2.40;75.80
33865;DHT22;20159;51.072;13.526;2022-11-20T15:13:30;2.30;76.20
33865;DHT22;20159;51.072;13.526;2022-11-20T15:15:58;2.20;76.70
33865;DHT22;20159;51.072;13.526;2022-11-20T15:18:31;2.10;76.40
33865;DHT22;20159;51.072;13.526;2022-11-20T15:21:00;2.00;76.60
33865;DHT22;20159;51.072;13.526;2022-11-20T15:23:27;2.00;76.80
33865;DHT22;20159;51.072;13.526;2022-11-20T15:25:53;1.90;77.10
33865;DHT22;20159;51.072;13.526;2022-11-20T15:28:29;1.80;77.20
33865;DHT22;20159;51.072;13.526;2022-11-20T15:30:56;1.70;77.50
33865;DHT22;20159;51.072;13.526;2022-11-20T15:33:22;1.60;77.30
33865;DHT22;20159;51.072;13.526;2022-11-20T15:35:47;1.50;77.60
33865;DHT22;20159;51.072;13.526;2022-11-20T15:38:13;2.20;78.40
33865;DHT22;20159;51.072;13.526;2022-11-20T15:40:39;1.40;78.30
33865;DHT22;20159;51.072;13.526;2022-11-20T15:43:05;1.30;79.00
33865;DHT22;20159;51.072;13.526;2022-11-20T15:45:52;1.20;79.20
33865;DHT22;20159;51.072;13.526;2022-11-20T15:48:24;1.10;79.40
33865;DHT22;20159;51.072;13.526;2022-11-20T15:51:11;1.10;80.10
33865;DHT22;20159;51.072;13.526;2022-11-20T15:53:37;1.00;80.40
33865;DHT22;20159;51.072;13.526;2022-11-20T15:56:03;1.00;81.20
33865;DHT22;20159;51.072;13.526;2022-11-20T15:58:29;1.00;80.20
33865;DHT22;20159;51.072;13.526;2022-11-20T16:00:56;0.90;80.80
33865;DHT22;20159;51.072;13.526;2022-11-20T16:03:21;0.90;81.20
33865;DHT22;20159;51.072;13.526;2022-11-20T16:05:47;0.80;81.40
33865;DHT22;20159;51.072;13.526;2022-11-20T16:08:13;0.80;81.70
33865;DHT22;20159;51.072;13.526;2022-11-20T16:10:39;1.70;82.40
33865;DHT22;20159;51.072;13.526;2022-11-20T16:13:13;0.70;82.20
33865;DHT22;20159;51.072;13.526;2022-11-20T16:15:59;0.70;82.70
33865;DHT22;20159;51.072;13.526;2022-11-20T16:18:26;0.70;83.10
33865;DHT22;20159;51.072;13.526;2022-11-20T16:20:53;0.70;83.40
33865;DHT22;20159;51.072;13.526;2022-11-20T16:23:19;0.60;83.50
33865;DHT22;20159;51.072;13.526;2022-11-20T16:25:46;0.60;83.80
33865;DHT22;20159;51.072;13.526;2022-11-20T16:28:12;0.60;84.00
33865;DHT22;20159;51.072;13.526;2022-11-20T16:30:38;0.60;84.10
33865;DHT22;20159;51.072;13.526;2022-11-20T16:33:08;0.50;84.30
33865;DHT22;20159;51.072;13.526;2022-11-20T16:35:34;0.60;84.50
33865;DHT22;20159;51.072;13.526;2022-11-20T16:38:00;0.50;84.60
33865;DHT22;20159;51.072;13.526;2022-11-20T16:40:25;0.50;84.80
33865;DHT22;20159;51.072;13.526;2022-11-20T16:42:51;0.40;84.90
33865;DHT22;20159;51.072;13.526;2022-11-20T16:45:17;0.40;84.90